02:08
Airports
History
Links
Donate
Help keep this website running!
PayPal
Bitcoin
This page is community maintained. The information is intended for PC simulator navigation or reference.
Always use approved charts for navigation.
EDLW
Dortmund-Wickede
Dortmund-Wickede (EDLW)
Dortmund, Nordrhein-Westfalen, Germany (44319)
(C)
Lat/Lng:51° 31' 8.79" N / 7° 36' 52.01" E
51.519107 / 7.614447
Elevation:425'ft / 130mMSL
ID / ICAO:EDLW
Runways:1
Longest:06-24
Asphalt 1,996m / 6,547ft
Controlled:Yes
METAR19:50 GMT 2017-09-19
Altimeter: 30.12
Visibility: 6.2 statute miles
Wind: 4 knots (from 240°)
Temp: 8°c / 46°f
Humidity: 87.2%

METAR: EDLW 191950Z 24004KT CAVOK 08/06 Q1020

(Powered by phpweather)
Airport Radio Frequencies
ATIS: 125.12
Ground: 121.82
Tower: 129.87, 134.17
Approach: 125.22
Nearby VORs <50NM
Nearby NDBs
Runway 06 / 24
Dimensions:1995.6 x 45.1m 6547' x 148'ft
Surface:Asphalt
Edge Lights:High intensity
Runway 06 [A]Runway 24 [B]
Heading:060°TH 240°TH
Lat:
Lng:
51° 30' 52.89"N
7° 36' 6.84"E
51° 31' 24.68"N
7° 37' 37.18"E
ALS:RAILRAIL
TDZ:Yes, lighted
User Notes and Comments
51° 31' 8.79" N / 7° 36' 52.01" E
Distance To
Airport ID:
Nearby Airports
(C) Kamen 6.4 NM
ED03 NE 39°
(U) ARNSBERG MENDEN 12.5 NM
EDLA E 101°
(C) Marl Loemuehle 21.3 NM
EDLM WNW 294°
(U) Borkenberge 22.8 NM
EDLB NW 321°
(C) Soest Bad Sassendorf 26.3 NM
EDLZ E 79°
(U) MEINERZHAGEN 28.9 NM
EDKZ S 180°
(U) Essen Mulheim 30.2 NM
EDLE WSW 254°
VFR Chart
Flight Planning at SkyVector.com